Time;durP1;ratioP1;P1;durP2;ratioP2;P2;SDS_P1;SDS_P2;PMS_P1;PMS_P2;Temp;Humidity;BMP_temperature;BMP_pressure;BME280_temperature;BME280_humidity;BME280_pressure;Samples;Min_cycle;Max_cycle;Signal;HPM_P1;HPM_P2
2023/03/06 00:01:00;;;;;;;19.17;16.10;;;;;;;2.07;75.47;92157.94;5068398;28;20275;-74
2023/03/06 00:03:26;;;;;;;15.90;14.43;;;;;;;2.28;74.68;92165.69;5068626;28;20185;-75
2023/03/06 00:05:55;;;;;;;16.57;14.97;;;;;;;2.02;75.90;92147.59;5068479;28;20267;-74
2023/03/06 00:08:21;;;;;;;17.00;15.17;;;;;;;1.83;76.29;92129.06;5068223;28;20215;-73
2023/03/06 00:10:47;;;;;;;19.17;16.50;;;;;;;1.68;77.78;92157.16;5068324;28;21240;-73
2023/03/06 00:13:15;;;;;;;17.93;16.10;;;;;;;1.83;77.58;92170.25;5068838;28;20208;-73
2023/03/06 00:15:41;;;;;;;19.10;15.17;;;;;;;1.76;77.64;92149.03;5067868;28;20221;-74
2023/03/06 00:18:06;;;;;;;16.80;14.97;;;;;;;1.68;78.19;92165.66;5069497;28;20779;-73
2023/03/06 00:20:33;;;;;;;18.73;15.83;;;;;;;1.61;78.66;92141.91;5068194;28;20229;-73
2023/03/06 00:22:58;;;;;;;18.63;15.90;;;;;;;1.82;78.68;92158.41;5068687;28;20190;-73
2023/03/06 00:25:24;;;;;;;19.10;17.10;;;;;;;1.87;78.83;92165.41;5065516;28;20225;-73
2023/03/06 00:27:50;;;;;;;17.60;15.77;;;;;;;1.81;77.53;92163.75;5068851;28;20197;-74
2023/03/06 00:30:22;;;;;;;18.83;16.80;;;;;;;2.02;75.25;92163.81;5068161;28;20235;-73
2023/03/06 00:32:48;;;;;;;18.00;15.90;;;;;;;2.20;74.39;92173.03;5067852;28;20195;-74
2023/03/06 00:35:14;;;;;;;16.57;14.90;;;;;;;2.36;73.84;92169.63;5069642;28;20239;-73
2023/03/06 00:37:40;;;;;;;18.30;16.37;;;;;;;2.16;74.42;92170.19;5073133;28;20190;-73
2023/03/06 00:40:11;;;;;;;18.30;16.07;;;;;;;2.08;76.00;92162.84;5071714;28;20188;-73
2023/03/06 00:42:37;;;;;;;20.00;16.67;;;;;;;2.08;76.61;92167.22;5072633;28;20204;-74
2023/03/06 00:45:03;;;;;;;16.53;14.77;;;;;;;2.18;73.70;92151.91;5071839;28;20205;-74
2023/03/06 00:47:28;;;;;;;18.40;16.70;;;;;;;2.49;72.26;92156.41;5072754;28;20220;-73
2023/03/06 00:49:53;;;;;;;18.67;15.20;;;;;;;2.58;70.86;92142.88;5071998;28;20276;-73
2023/03/06 00:52:19;;;;;;;21.50;14.87;;;;;;;2.47;70.62;92158.44;5071594;28;20216;-74
2023/03/06 00:54:44;;;;;;;17.13;15.07;;;;;;;2.50;70.62;92163.91;5072779;28;20189;-74
2023/03/06 00:57:10;;;;;;;18.40;15.87;;;;;;;2.49;70.21;92159.75;5071811;28;20228;-73
2023/03/06 00:59:35;;;;;;;17.73;15.83;;;;;;;2.47;69.82;92150.72;5070654;28;20269;-74
2023/03/06 01:02:01;;;;;;;17.13;15.33;;;;;;;2.42;70.63;92142.91;5072140;28;20228;-75
2023/03/06 01:04:27;;;;;;;18.63;16.90;;;;;;;2.34;70.89;92138.19;5072101;28;20192;-74
2023/03/06 01:06:52;;;;;;;18.20;16.50;;;;;;;2.44;70.73;92146.03;5070732;28;20239;-73
2023/03/06 01:09:17;;;;;;;18.17;15.33;;;;;;;2.42;71.06;92122.31;5071962;28;20200;-73
2023/03/06 01:11:43;;;;;;;18.13;15.57;;;;;;;2.44;70.47;92133.94;5071678;28;20248;-73
2023/03/06 01:14:09;;;;;;;17.63;15.37;;;;;;;2.53;70.32;92127.34;5070871;28;20197;-73
2023/03/06 01:16:34;;;;;;;15.83;14.23;;;;;;;2.46;70.87;92133.72;5071869;28;20226;-73
2023/03/06 01:19:00;;;;;;;18.67;16.87;;;;;;;2.47;70.30;92120.59;5071970;28;20277;-73
2023/03/06 01:21:25;;;;;;;16.63;14.70;;;;;;;2.51;69.79;92138.88;5071045;28;20213;-74
2023/03/06 01:23:50;;;;;;;18.70;15.33;;;;;;;2.53;70.86;92123.97;5072134;28;20213;-73
2023/03/06 01:26:16;;;;;;;15.97;14.60;;;;;;;2.58;70.53;92142.06;5071481;28;20232;-73
2023/03/06 01:28:42;;;;;;;16.53;14.90;;;;;;;2.48;70.09;92116.19;5071983;28;20189;-74
2023/03/06 01:31:08;;;;;;;18.57;16.67;;;;;;;2.60;69.67;92142.63;5070955;28;20232;-74
2023/03/06 01:33:34;;;;;;;17.03;15.40;;;;;;;2.56;70.45;92136.38;5071857;28;20197;-73
2023/03/06 01:36:01;;;;;;;21.73;16.13;;;;;;;2.56;70.64;92136.38;5070515;28;20232;-73
2023/03/06 01:38:27;;;;;;;16.87;15.20;;;;;;;2.55;70.08;92132.25;5070443;28;20181;-74
2023/03/06 01:40:52;;;;;;;18.90;16.40;;;;;;;2.51;71.39;92149.19;5070777;28;20232;-74
2023/03/06 01:43:26;;;;;;;16.17;14.57;;;;;;;2.51;71.07;92138.88;5071396;28;20204;-73
2023/03/06 01:45:51;;;;;;;17.13;15.30;;;;;;;2.48;71.03;92131.66;5069335;28;20229;-74
2023/03/06 01:48:21;;;;;;;18.00;16.27;;;;;;;2.54;71.08;92140.97;5071399;28;20188;-73
2023/03/06 01:50:47;;;;;;;17.80;14.87;;;;;;;2.42;71.70;92122.31;5069462;28;20268;-73
2023/03/06 01:53:14;;;;;;;19.27;14.97;;;;;;;2.63;71.43;92132.59;5071223;28;20280;-74
2023/03/06 01:55:40;;;;;;;19.53;17.50;;;;;;;2.42;72.23;92142.91;5070495;28;20233;-73
2023/03/06 01:58:14;;;;;;;18.40;16.50;;;;;;;2.35;72.22;92129.47;5071194;28;20195;-74
2023/03/06 02:00:40;;;;;;;17.90;15.80;;;;;;;2.42;72.05;92132.63;5070441;28;20305;-74
2023/03/06 02:03:11;;;;;;;17.13;15.37;;;;;;;2.38;73.43;92141.84;5071146;28;20189;-74
2023/03/06 02:05:39;;;;;;;18.00;15.47;;;;;;;2.46;73.44;92144.78;5068950;28;20229;-73
2023/03/06 02:08:06;;;;;;;20.80;16.23;;;;;;;2.35;73.05;92135.38;5069912;28;20204;-74
2023/03/06 02:10:32;;;;;;;18.03;16.13;;;;;;;2.44;72.26;92133.16;5069657;28;20281;-74
2023/03/06 02:12:58;;;;;;;18.93;15.93;;;;;;;2.36;72.13;92134.38;5070434;28;20205;-73
2023/03/06 02:15:25;;;;;;;20.13;15.97;;;;;;;2.37;72.79;92140.28;5069499;28;20292;-73
2023/03/06 02:17:51;;;;;;;18.87;14.77;;;;;;;2.26;73.96;92136.03;5071188;28;20216;-73
2023/03/06 02:20:32;;;;;;;17.27;14.97;;;;;;;2.18;74.62;92141.63;5069813;28;20229;-74
2023/03/06 02:23:06;;;;;;;16.73;14.97;;;;;;;2.30;73.50;92144.84;5070331;28;20195;-73
2023/03/06 02:25:41;;;;;;;18.30;16.43;;;;;;;2.23;73.54;92144.22;5070277;28;20251;-74
2023/03/06 02:28:13;;;;;;;23.97;15.43;;;;;;;2.06;73.97;92140.94;5068863;28;20834;-73
2023/03/06 02:30:40;;;;;;;17.63;14.17;;;;;;;1.97;74.16;92135.44;5069529;28;20228;-73
2023/03/06 02:33:06;;;;;;;19.33;15.53;;;;;;;2.08;74.51;92157.72;5069883;28;20197;-74
2023/03/06 02:35:34;;;;;;;17.43;15.73;;;;;;;2.05;74.95;92154.81;5070196;28;20292;-73
2023/03/06 02:38:12;;;;;;;18.03;15.93;;;;;;;2.05;74.93;92152.25;5070874;28;20220;-74
2023/03/06 02:40:38;;;;;;;18.43;15.83;;;;;;;2.09;76.39;92168.78;5068745;28;20229;-73
2023/03/06 02:43:03;;;;;;;17.20;15.60;;;;;;;2.11;74.87;92148.72;5070524;28;20235;-73
2023/03/06 02:45:44;;;;;;;18.93;16.00;;;;;;;2.39;73.31;92169.16;5068338;28;20221;-74
2023/03/06 02:48:11;;;;;;;17.17;15.53;;;;;;;2.33;73.52;92175.25;5070209;28;20256;-73
2023/03/06 02:50:37;;;;;;;17.63;15.87;;;;;;;2.15;74.16;92165.28;5068826;28;20247;-73
2023/03/06 02:53:03;;;;;;;19.33;16.10;;;;;;;2.19;74.11;92174.84;5069765;28;20180;-73
2023/03/06 02:55:28;;;;;;;17.20;15.47;;;;;;;2.02;75.59;92170.75;5069647;28;20244;-73
2023/03/06 02:57:54;;;;;;;19.17;17.13;;;;;;;2.04;76.41;92169.47;5069938;28;20862;-73
2023/03/06 03:00:19;;;;;;;20.83;15.87;;;;;;;1.92;77.19;92168.03;5069020;28;20560;-74
2023/03/06 03:02:45;;;;;;;20.10;16.67;;;;;;;1.72;77.99;92172.91;5070202;28;20181;-73
2023/03/06 03:05:10;;;;;;;18.97;15.77;;;;;;;1.72;78.78;92176.25;5069447;28;20233;-73
2023/03/06 03:07:36;;;;;;;20.57;16.77;;;;;;;1.88;78.56;92175.47;5069917;28;20213;-73
2023/03/06 03:10:02;;;;;;;18.67;16.67;;;;;;;2.00;77.35;92167.63;5068932;28;20186;-73
2023/03/06 03:12:28;;;;;;;22.33;16.57;;;;;;;2.05;75.33;92144.53;5070231;28;20189;-73
2023/03/06 03:14:54;;;;;;;17.67;15.77;;;;;;;2.32;75.25;92179.63;5068640;28;20201;-73
2023/03/06 03:17:21;;;;;;;20.57;16.37;;;;;;;2.22;75.75;92168.44;5069705;28;20185;-74
2023/03/06 03:19:46;;;;;;;18.50;16.60;;;;;;;2.24;75.67;92189.56;5069428;28;20189;-74
2023/03/06 03:22:12;;;;;;;21.70;17.33;;;;;;;2.23;76.80;92180.28;5069177;28;20785;-73
2023/03/06 03:24:37;;;;;;;18.77;16.60;;;;;;;2.21;76.52;92188.25;5069749;28;20197;-73
2023/03/06 03:27:02;;;;;;;19.07;16.83;;;;;;;2.26;76.00;92175.44;5068104;28;20818;-73
2023/03/06 03:29:28;;;;;;;19.60;16.37;;;;;;;2.01;77.45;92177.69;5069705;28;20232;-74
2023/03/06 03:31:53;;;;;;;19.53;17.33;;;;;;;2.09;78.25;92191.94;5068872;28;20217;-73
2023/03/06 03:34:19;;;;;;;17.20;15.37;;;;;;;2.16;77.04;92188.19;5069440;28;20193;-73
2023/03/06 03:36:45;;;;;;;17.73;15.67;;;;;;;1.98;78.04;92182.53;5067797;28;20221;-74
2023/03/06 03:39:10;;;;;;;19.43;17.40;;;;;;;1.64;78.67;92171.50;5069118;28;20256;-73
2023/03/06 03:41:36;;;;;;;19.13;17.13;;;;;;;1.64;79.85;92184.38;5068035;28;20236;-73
2023/03/06 03:44:01;;;;;;;21.60;16.50;;;;;;;1.72;79.05;92190.91;5069141;28;20213;-73
2023/03/06 03:46:27;;;;;;;22.90;17.33;;;;;;;1.64;80.34;92192.09;5068501;28;20217;-73
2023/03/06 03:48:52;;;;;;;19.20;16.47;;;;;;;1.63;80.23;92175.84;5051382;28;20723;-73
2023/03/06 03:51:17;;;;;;;19.70;17.70;;;;;;;1.51;80.34;92193.19;5068583;28;20247;-74
2023/03/06 03:53:43;;;;;;;20.03;16.53;;;;;;;1.48;80.27;92183.34;5069367;28;20192;-73
2023/03/06 03:56:10;;;;;;;24.00;17.23;;;;;;;1.62;80.61;92199.25;5068537;28;20233;-73
2023/03/06 03:58:35;;;;;;;19.17;17.00;;;;;;;1.65;80.89;92193.63;5068038;28;20185;-74
2023/03/06 04:01:01;;;;;;;19.80;17.03;;;;;;;1.52;81.12;92202.47;5068311;28;20281;-72
2023/03/06 04:03:26;;;;;;;17.53;15.10;;;;;;;1.43;81.56;92185.09;5068946;28;20189;-74
2023/03/06 04:05:53;;;;;;;19.87;17.70;;;;;;;1.41;81.60;92187.09;5068894;28;20233;-73
2023/03/06 04:08:19;;;;;;;17.67;15.20;;;;;;;1.41;82.45;92203.31;5069082;28;20178;-74
2023/03/06 04:10:45;;;;;;;18.00;16.07;;;;;;;1.34;82.25;92202.69;5068175;28;20236;-74
2023/03/06 04:13:10;;;;;;;24.87;16.63;;;;;;;1.20;82.05;92169.78;5068835;28;20212;-73
2023/03/06 04:15:35;;;;;;;19.53;16.83;;;;;;;1.32;83.18;92212.41;5068707;28;20240;-73
2023/03/06 04:18:01;;;;;;;19.23;17.00;;;;;;;1.41;83.16;92203.31;5067945;28;20194;-73
2023/03/06 04:20:27;;;;;;;18.87;16.70;;;;;;;1.28;83.87;92184.81;5068348;28;20251;-73
2023/03/06 04:22:52;;;;;;;18.10;16.30;;;;;;;1.37;84.40;92202.22;5068907;28;20197;-74
2023/03/06 04:25:18;;;;;;;18.83;16.93;;;;;;;1.29;83.72;92206.97;5068290;28;20243;-73
2023/03/06 04:27:43;;;;;;;17.67;15.23;;;;;;;1.43;83.98;92211.56;5069239;28;20181;-73
2023/03/06 04:30:10;;;;;;;17.17;15.53;;;;;;;1.46;83.51;92211.09;5068120;28;20248;-73
2023/03/06 04:32:35;;;;;;;17.73;15.77;;;;;;;1.67;83.00;92207.84;5068040;28;20188;-73
2023/03/06 04:35:01;;;;;;;17.83;16.03;;;;;;;1.43;83.86;92203.84;5067505;28;20643;-73
2023/03/06 04:37:27;;;;;;;23.90;16.90;;;;;;;1.53;83.44;92211.72;5069124;28;20180;-73
2023/03/06 04:39:52;;;;;;;20.03;15.10;;;;;;;1.49;83.96;92205.47;5067656;28;20185;-73
2023/03/06 04:42:18;;;;;;;18.50;15.93;;;;;;;1.64;83.86;92195.44;5069204;28;20223;-74
2023/03/06 04:44:44;;;;;;;20.07;16.13;;;;;;;1.71;83.94;92217.66;5069020;28;20217;-74
2023/03/06 04:47:10;;;;;;;20.43;16.60;;;;;;;1.69;83.53;92205.03;5067782;28;20304;-74
2023/03/06 04:49:35;;;;;;;22.53;16.77;;;;;;;1.76;83.09;92213.34;5068923;28;20190;-74
2023/03/06 04:52:00;;;;;;;18.20;15.83;;;;;;;1.51;83.98;92218.09;5066693;28;20233;-74
2023/03/06 04:54:26;;;;;;;18.60;16.77;;;;;;;1.58;84.39;92209.25;5068744;28;20177;-73
2023/03/06 04:56:51;;;;;;;17.50;15.90;;;;;;;1.79;83.93;92204.41;5068010;28;20957;-74
2023/03/06 04:59:16;;;;;;;19.53;16.17;;;;;;;1.92;83.17;92211.78;5068625;28;20212;-77
2023/03/06 05:01:42;;;;;;;19.57;15.27;;;;;;;1.78;83.42;92219.03;5067619;28;20220;-83
2023/03/06 05:04:08;;;;;;;18.60;16.37;;;;;;;1.93;84.03;92221.06;5068425;28;20193;-73
2023/03/06 05:06:33;;;;;;;18.47;15.60;;;;;;;1.83;83.96;92193.41;5066518;28;20241;-72
2023/03/06 05:08:58;;;;;;;17.97;16.07;;;;;;;1.81;84.05;92184.34;5065730;28;20189;-79
2023/03/06 05:11:24;;;;;;;21.90;15.33;;;;;;;1.59;83.56;92159.34;5067197;28;20302;-79
2023/03/06 05:13:50;;;;;;;25.73;15.93;;;;;;;1.70;82.68;92174.94;5067005;28;20197;-78
2023/03/06 05:16:16;;;;;;;21.40;16.77;;;;;;;2.09;84.06;92226.19;5064571;28;20237;-82
2023/03/06 05:18:41;;;;;;;19.37;16.47;;;;;;;1.82;82.84;92165.34;5067951;28;20181;-82
2023/03/06 05:21:07;;;;;;;20.00;17.60;;;;;;;1.95;82.34;92185.56;5065687;28;20243;-81
2023/03/06 05:23:35;;;;;;;20.30;18.07;;;;;;;1.62;81.23;92134.94;5069766;28;20213;-77
2023/03/06 05:26:03;;;;;;;23.03;17.53;;;;;;;2.30;81.06;92242.69;5067862;28;20229;-73
2023/03/06 05:28:29;;;;;;;21.00;17.53;;;;;;;2.02;82.27;92207.56;5071062;28;20178;-79
2023/03/06 05:30:54;;;;;;;21.53;17.07;;;;;;;2.14;82.37;92235.78;5070267;28;20252;-81
2023/03/06 05:33:19;;;;;;;18.67;15.83;;;;;;;2.33;81.48;92199.22;5070777;28;20181;-84
2023/03/06 05:35:47;;;;;;;21.27;17.10;;;;;;;2.65;80.17;92240.56;5070788;28;20281;-79
2023/03/06 05:38:13;;;;;;;23.50;17.40;;;;;;;2.69;83.43;92221.03;5070978;28;20249;-81
2023/03/06 05:40:40;;;;;;;18.63;16.73;;;;;;;2.49;82.51;92200.97;5071482;28;20225;-86
2023/03/06 05:43:07;;;;;;;21.97;17.73;;;;;;;2.65;79.70;92227.69;5071576;28;20204;-87
2023/03/06 05:45:33;;;;;;;22.10;16.73;;;;;;;2.55;80.35;92209.53;5071330;28;20255;-86
2023/03/06 05:47:58;;;;;;;22.57;17.37;;;;;;;2.50;79.33;92199.97;5072246;28;20189;-86
2023/03/06 05:50:23;;;;;;;27.47;17.97;;;;;;;2.61;78.79;92229.97;5071090;28;20227;-87
2023/03/06 05:52:49;;;;;;;31.37;19.37;;;;;;;2.32;79.57;92207.97;5071896;28;20220;-87
2023/03/06 05:55:15;;;;;;;24.17;19.17;;;;;;;2.39;79.45;92202.63;5071275;28;20260;-87
2023/03/06 05:57:41;;;;;;;28.73;18.93;;;;;;;2.64;79.02;92244.97;5070255;28;20194;-82
2023/03/06 06:00:08;;;;;;;28.60;19.00;;;;;;;2.04;79.72;92233.06;5070385;28;20193;-86
2023/03/06 06:02:34;;;;;;;20.47;18.20;;;;;;;2.63;79.26;92258.06;5070712;28;20205;-86
2023/03/06 06:05:01;;;;;;;24.17;18.40;;;;;;;2.55;78.97;92266.22;5070128;28;20200;-88
2023/03/06 06:07:26;;;;;;;23.43;17.93;;;;;;;2.86;77.53;92248.28;5070681;28;20221;-86
2023/03/06 06:09:52;;;;;;;21.27;17.23;;;;;;;3.39;75.26;92252.75;5070072;28;20189;-86
2023/03/06 06:12:18;;;;;;;24.97;16.90;;;;;;;3.42;72.37;92252.25;5073541;28;20193;-85
2023/03/06 06:14:43;;;;;;;16.97;15.13;;;;;;;3.72;71.64;92268.00;5070946;28;20237;-87
2023/03/06 06:17:11;;;;;;;21.40;16.17;;;;;;;3.34;70.08;92234.63;5069395;28;20231;-87
2023/03/06 06:19:36;;;;;;;23.67;17.37;;;;;;;3.56;71.51;92271.47;5071069;28;20718;-86
2023/03/06 06:22:02;;;;;;;19.60;17.40;;;;;;;3.50;71.47;92275.03;5069952;28;20238;-85
2023/03/06 06:24:28;;;;;;;18.73;16.43;;;;;;;3.42;71.64;92256.63;5070108;28;20212;-87
2023/03/06 06:26:55;;;;;;;20.47;17.43;;;;;;;3.27;71.57;92250.28;5070255;28;20229;-87
2023/03/06 06:29:21;;;;;;;22.20;16.87;;;;;;;3.44;72.50;92281.16;5070603;28;20177;-86
2023/03/06 06:31:47;;;;;;;19.47;17.40;;;;;;;3.29;71.40;92247.47;5068779;28;20232;-85
2023/03/06 06:34:13;;;;;;;18.67;16.23;;;;;;;3.54;70.75;92273.50;5069641;28;20174;-86
2023/03/06 06:36:39;;;;;;;19.40;17.30;;;;;;;3.38;71.62;92266.63;5069930;28;20221;-86
2023/03/06 06:39:06;;;;;;;20.87;17.57;;;;;;;3.57;71.01;92288.50;5070675;28;20173;-87
2023/03/06 06:41:31;;;;;;;18.93;16.77;;;;;;;3.71;70.01;92289.66;5070276;28;20225;-86
2023/03/06 06:43:57;;;;;;;22.20;18.13;;;;;;;3.46;71.84;92279.09;5071079;28;20213;-82
2023/03/06 06:46:23;;;;;;;19.87;17.73;;;;;;;3.60;71.21;92287.22;5067733;28;20225;-85
2023/03/06 06:48:51;;;;;;;19.13;17.07;;;;;;;3.65;71.13;92293.22;5071173;28;20197;-84
2023/03/06 06:51:17;;;;;;;17.97;16.27;;;;;;;3.76;70.37;92286.34;5068833;28;20280;-88
2023/03/06 06:53:43;;;;;;;19.57;16.73;;;;;;;3.79;71.61;92283.28;5069843;28;20181;-85
2023/03/06 06:56:08;;;;;;;19.10;16.93;;;;;;;3.68;69.22;92282.41;5069024;28;20237;-86
2023/03/06 06:58:34;;;;;;;18.50;16.57;;;;;;;3.52;68.99;92272.97;5070856;28;20196;-87
2023/03/06 07:01:07;;;;;;;24.20;18.10;;;;;;;3.66;69.42;92299.94;5069965;28;20268;-86
2023/03/06 07:03:32;;;;;;;19.30;16.47;;;;;;;3.32;71.78;92298.56;5071355;28;20178;-85
2023/03/06 07:05:58;;;;;;;24.40;18.00;;;;;;;3.61;70.80;92281.81;5069826;28;20231;-88
2023/03/06 07:08:23;;;;;;;21.73;16.60;;;;;;;3.61;71.22;92302.47;5069388;28;20185;-88
2023/03/06 07:10:48;;;;;;;21.10;18.90;;;;;;;3.86;69.31;92294.19;5068347;28;20229;-88
2023/03/06 07:13:14;;;;;;;17.83;16.00;;;;;;;3.76;70.33;92289.72;5100859;28;20186;-84
2023/03/06 07:15:39;;;;;;;19.17;16.53;;;;;;;4.09;68.76;92294.66;5069526;28;20229;-87
2023/03/06 07:18:04;;;;;;;19.77;17.87;;;;;;;4.10;69.23;92301.38;5069983;28;20186;-87
2023/03/06 07:20:30;;;;;;;19.60;16.40;;;;;;;4.20;68.37;92304.00;5070079;28;20302;-89
2023/03/06 07:22:56;;;;;;;23.07;17.60;;;;;;;4.11;68.06;92291.81;5070514;28;20196;-87
2023/03/06 07:25:22;;;;;;;20.10;17.80;;;;;;;3.96;68.74;92299.44;5064648;28;20233;-82
2023/03/06 07:27:50;;;;;;;22.97;18.13;;;;;;;3.99;69.57;92312.63;5049413;28;20194;-87
2023/03/06 07:30:16;;;;;;;20.83;17.60;;;;;;;4.27;69.27;92301.22;5052396;28;20225;-87
2023/03/06 07:32:41;;;;;;;19.20;17.03;;;;;;;4.29;68.02;92297.38;5069445;28;20200;-87
2023/03/06 07:35:07;;;;;;;19.17;17.30;;;;;;;4.08;67.78;92271.63;5068240;28;20216;-88
2023/03/06 07:37:32;;;;;;;18.80;16.37;;;;;;;4.05;68.87;92292.78;5069134;28;20209;-78
2023/03/06 07:39:58;;;;;;;26.40;18.50;;;;;;;4.29;67.89;92315.47;5067945;28;20874;-81
2023/03/06 07:42:23;;;;;;;19.53;17.43;;;;;;;4.20;68.13;92306.59;5068800;28;20265;-80
2023/03/06 07:44:48;;;;;;;25.60;18.63;;;;;;;4.32;68.28;92320.16;5063360;28;20217;-78
2023/03/06 07:47:14;;;;;;;22.50;18.90;;;;;;;3.87;70.30;92322.34;5066801;28;20233;-79
2023/03/06 07:49:39;;;;;;;25.93;18.73;;;;;;;3.41;72.48;92296.34;5068854;28;20208;-79
2023/03/06 07:52:05;;;;;;;22.53;18.83;;;;;;;3.63;71.27;92295.28;5067537;28;20209;-80
2023/03/06 07:54:31;;;;;;;22.93;18.30;;;;;;;4.45;69.18;92322.28;5068989;28;20186;-79
2023/03/06 07:56:57;;;;;;;22.83;18.70;;;;;;;4.30;68.46;92327.34;5067527;28;20209;-79
2023/03/06 07:59:22;;;;;;;21.67;17.37;;;;;;;4.19;69.94;92305.03;5068801;28;20211;-79
2023/03/06 08:01:47;;;;;;;21.87;18.70;;;;;;;4.41;69.54;92323.81;5067313;28;20213;-79
2023/03/06 08:04:13;;;;;;;24.10;18.50;;;;;;;4.73;68.29;92321.94;5069388;28;20185;-80
2023/03/06 08:06:38;;;;;;;22.77;16.97;;;;;;;4.80;68.84;92322.53;5051388;28;20226;-79
2023/03/06 08:09:04;;;;;;;22.67;18.30;;;;;;;4.36;68.91;92310.06;5048769;28;20244;-81
2023/03/06 08:11:29;;;;;;;24.90;17.77;;;;;;;4.87;67.19;92297.19;5062357;28;20742;-78
2023/03/06 08:13:57;;;;;;;22.00;18.47;;;;;;;4.80;67.44;92304.41;5068392;28;20190;-79
2023/03/06 08:16:24;;;;;;;26.43;21.60;;;;;;;5.04;66.92;92301.44;5067899;28;20221;-79
2023/03/06 08:18:50;;;;;;;21.53;19.27;;;;;;;5.33;65.78;92324.06;5068110;28;20201;-80
2023/03/06 08:21:22;;;;;;;29.67;21.17;;;;;;;5.22;65.47;92303.56;5067988;28;20208;-78
2023/03/06 08:23:48;;;;;;;21.17;18.67;;;;;;;5.37;65.45;92316.56;5068898;28;20197;-79
2023/03/06 08:26:19;;;;;;;1999.90;999.90;;;;;;;4.97;66.96;92328.31;5066912;28;20217;-79
2023/03/06 08:28:45;;;;;;;258.33;122.20;;;;;;;4.97;66.20;92328.31;5067837;28;20205;-79
2023/03/06 08:31:41;;;;;;;33.70;26.57;;;;;;;5.30;66.41;92310.84;5067785;28;20247;-79
2023/03/06 08:34:12;;;;;;;146.87;65.00;;;;;;;5.45;65.55;92316.09;5068144;28;20186;-79
2023/03/06 08:36:38;;;;;;;25.20;19.63;;;;;;;5.68;63.91;92320.81;5067620;28;20244;-79
2023/03/06 08:39:03;;;;;;;21.17;18.97;;;;;;;5.58;64.18;92295.66;5069020;28;20181;-78
2023/03/06 08:41:30;;;;;;;23.33;19.87;;;;;;;5.76;64.11;92322.91;5068089;28;20221;-79
2023/03/06 08:43:55;;;;;;;21.80;19.10;;;;;;;5.75;63.15;92319.53;5067086;28;20244;-77
2023/03/06 08:46:23;;;;;;;22.57;18.70;;;;;;;5.83;63.38;92313.09;5067595;28;20226;-77
2023/03/06 08:48:49;;;;;;;20.80;17.20;;;;;;;5.87;62.79;92327.84;5069231;28;20185;-77
2023/03/06 08:51:16;;;;;;;22.50;18.47;;;;;;;5.71;63.38;92321.06;5068142;28;20286;-76
2023/03/06 08:53:42;;;;;;;25.80;19.60;;;;;;;5.81;64.10;92315.13;5068193;28;20217;-76
2023/03/06 08:56:18;;;;;;;26.63;19.20;;;;;;;5.76;63.08;92326.25;5068181;28;20275;-76
2023/03/06 08:58:44;;;;;;;26.70;19.10;;;;;;;5.96;61.47;92321.13;5070874;28;20205;-75
2023/03/06 09:01:15;;;;;;;21.70;18.40;;;;;;;5.98;62.45;92334.63;5069516;28;20237;-74
2023/03/06 09:03:40;;;;;;;26.17;19.10;;;;;;;6.04;62.55;92325.03;5072296;28;20828;-74
2023/03/06 09:06:06;;;;;;;21.90;19.60;;;;;;;6.06;67.46;92310.00;5071140;28;20240;-72
2023/03/06 09:08:31;;;;;;;22.77;19.30;;;;;;;6.22;62.45;92322.72;5071993;28;20212;-73
2023/03/06 09:10:56;;;;;;;22.97;19.43;;;;;;;6.26;61.02;92315.19;5070856;28;20225;-75
2023/03/06 09:13:22;;;;;;;20.37;18.00;;;;;;;6.43;60.87;92307.94;5072375;28;20184;-74
2023/03/06 09:15:47;;;;;;;27.90;20.67;;;;;;;6.45;60.43;92335.16;5071688;28;20516;-72
2023/03/06 09:18:12;;;;;;;22.07;19.67;;;;;;;6.46;60.51;92335.94;5071702;28;20758;-74
2023/03/06 09:20:38;;;;;;;22.87;19.37;;;;;;;6.60;60.68;92336.97;5072142;28;20251;-72
2023/03/06 09:23:03;;;;;;;21.77;18.33;;;;;;;6.69;60.88;92332.81;5071502;28;20186;-73
2023/03/06 09:25:28;;;;;;;21.87;19.57;;;;;;;6.66;62.92;92325.56;5070414;28;20233;-72
2023/03/06 09:27:54;;;;;;;29.13;20.27;;;;;;;6.89;59.20;92332.78;5070862;28;20185;-72
2023/03/06 09:30:19;;;;;;;25.63;19.47;;;;;;;6.59;59.47;92327.63;5070969;28;20223;-71
2023/03/06 09:32:45;;;;;;;21.00;18.90;;;;;;;6.58;59.58;92302.75;5070991;28;20193;-80
2023/03/06 09:35:13;;;;;;;21.00;17.87;;;;;;;7.09;59.35;92321.56;5070412;28;20235;-79
2023/03/06 09:37:38;;;;;;;20.77;17.83;;;;;;;7.01;57.58;92307.34;5070678;28;20185;-72
2023/03/06 09:40:05;;;;;;;23.20;18.47;;;;;;;6.96;58.93;92320.31;5070815;28;20207;-75
2023/03/06 09:42:32;;;;;;;25.63;18.70;;;;;;;7.03;57.94;92310.44;5071454;28;20673;-74
2023/03/06 09:45:01;;;;;;;22.73;20.30;;;;;;;7.16;57.95;92325.44;5069542;28;20233;-73
2023/03/06 09:47:45;;;;;;;27.03;18.37;;;;;;;7.33;58.55;92315.53;5070594;28;20212;-73
2023/03/06 09:50:22;;;;;;;20.03;18.07;;;;;;;7.37;57.20;92320.97;5069777;28;20293;-71
2023/03/06 09:53:14;;;;;;;20.10;17.90;;;;;;;7.45;57.92;92310.81;5070020;28;20208;-70
2023/03/06 09:55:40;;;;;;;20.80;18.20;;;;;;;7.49;57.26;92306.63;5069916;28;20229;-71
2023/03/06 09:58:13;;;;;;;24.50;17.70;;;;;;;7.67;56.57;92315.66;5069184;28;20264;-71
2023/03/06 10:01:05;;;;;;;21.23;17.30;;;;;;;7.73;55.67;92309.38;5069866;28;20260;-74
2023/03/06 10:03:37;;;;;;;18.30;16.43;;;;;;;7.80;55.73;92310.63;5070328;28;20201;-79
2023/03/06 10:06:12;;;;;;;19.90;16.97;;;;;;;7.84;55.67;92310.88;5069874;28;20268;-71
2023/03/06 10:08:54;;;;;;;23.30;17.97;;;;;;;8.05;55.95;92297.50;5068951;28;20196;-77
2023/03/06 10:11:36;;;;;;;19.20;17.07;;;;;;;8.23;56.08;92303.13;5070347;28;20216;-71
2023/03/06 10:14:11;;;;;;;21.27;16.93;;;;;;;8.21;54.88;92308.56;5070371;28;20197;-69
2023/03/06 10:16:37;;;;;;;23.73;18.47;;;;;;;8.16;54.84;92304.16;5069509;28;20244;-69
2023/03/06 10:19:09;;;;;;;28.67;18.77;;;;;;;8.10;55.21;92294.84;5070061;28;20193;-71
2023/03/06 10:22:12;;;;;;;19.27;17.27;;;;;;;8.40;56.57;92293.09;5067106;28;20228;-73
2023/03/06 10:24:59;;;;;;;19.97;17.40;;;;;;;8.77;53.79;92294.06;5070273;28;20264;-71
2023/03/06 10:27:46;;;;;;;24.87;16.13;;;;;;;9.06;53.74;92292.22;5068992;28;20233;-75
2023/03/06 10:30:39;;;;;;;20.07;16.83;;;;;;;8.93;54.53;92289.50;5069623;28;20284;-71
2023/03/06 10:33:20;;;;;;;16.43;14.93;;;;;;;9.08;52.03;92271.91;5067175;28;20257;-71
2023/03/06 10:35:54;;;;;;;20.80;15.40;;;;;;;9.24;50.93;92288.91;5069114;28;20217;-70
2023/03/06 10:38:31;;;;;;;15.70;14.27;;;;;;;9.51;50.28;92291.69;5069582;28;20190;-71
2023/03/06 10:41:19;;;;;;;72.30;58.30;;;;;;;9.90;49.75;92280.28;5069196;28;20225;-71
2023/03/06 10:44:04;;;;;;;17.10;15.50;;;;;;;9.83;50.83;92275.41;5067883;28;20232;-71
2023/03/06 10:46:41;;;;;;;16.03;14.57;;;;;;;10.19;49.42;92281.69;5068573;28;20926;-73
2023/03/06 10:49:28;;;;;;;17.30;15.43;;;;;;;10.08;49.08;92282.13;5069237;28;20265;-72
2023/03/06 10:52:02;;;;;;;18.33;14.77;;;;;;;9.86;51.29;92267.00;5068649;28;20255;-73
2023/03/06 10:54:31;;;;;;;75.00;39.03;;;;;;;10.37;49.04;92257.41;5068834;28;20177;-73
2023/03/06 10:56:56;;;;;;;85.63;43.13;;;;;;;10.32;50.63;92252.25;5068862;28;20773;-73
2023/03/06 10:59:27;;;;;;;19.87;16.27;;;;;;;10.27;50.68;92254.19;5069029;28;20177;-73
2023/03/06 11:02:12;;;;;;;14.93;13.47;;;;;;;10.12;49.05;92239.53;5069672;28;20236;-73
2023/03/06 11:04:40;;;;;;;15.27;13.77;;;;;;;10.69;50.72;92254.03;5068868;28;20214;-73
2023/03/06 11:07:20;;;;;;;15.80;14.33;;;;;;;10.65;48.52;92256.41;5069637;28;20267;-74
2023/03/06 11:09:58;;;;;;;15.07;13.87;;;;;;;10.83;45.56;92255.56;5069464;28;20185;-74
2023/03/06 11:12:36;;;;;;;13.77;12.47;;;;;;;10.64;44.53;92234.00;5069006;28;20264;-73
2023/03/06 11:15:13;;;;;;;12.93;11.93;;;;;;;10.91;44.21;92249.69;5068732;28;20193;-73
2023/03/06 11:17:58;;;;;;;13.33;12.13;;;;;;;11.08;44.78;92233.47;5069609;28;20186;-74
2023/03/06 11:20:23;;;;;;;13.33;12.07;;;;;;;11.18;45.14;92239.28;5069840;28;20296;-73
2023/03/06 11:22:58;;;;;;;13.57;12.33;;;;;;;11.50;44.28;92229.75;5069190;28;20182;-74
2023/03/06 11:25:30;;;;;;;17.97;16.27;;;;;;;11.64;42.16;92207.00;5061759;28;20225;-75
2023/03/06 11:28:06;;;;;;;13.73;12.53;;;;;;;11.58;42.16;92200.31;5069541;28;20194;-73